createdAt,value
2017-11-14T00:01:14.184Z,6.20
2017-11-14T00:03:41.649Z,6.30
2017-11-14T00:06:09.135Z,6.10
2017-11-14T00:08:38.462Z,6.00
2017-11-14T00:11:07.391Z,5.90
2017-11-14T00:13:35.279Z,6.00
2017-11-14T00:16:02.910Z,6.10
2017-11-14T00:18:31.964Z,6.20
2017-11-14T00:21:01.814Z,6.10
2017-11-14T00:23:31.397Z,6.00
2017-11-14T00:26:00.619Z,6.00
2017-11-14T00:28:28.106Z,6.00
2017-11-14T00:30:56.593Z,6.20
2017-11-14T00:33:24.074Z,6.20
2017-11-14T00:35:51.548Z,6.20
2017-11-14T00:38:19.796Z,6.20
2017-11-14T00:40:47.280Z,6.10
2017-11-14T00:43:15.525Z,6.20
2017-11-14T00:45:43.006Z,6.10
2017-11-14T00:48:10.481Z,6.10
2017-11-14T00:50:44.490Z,6.10
2017-11-14T00:53:12.725Z,6.20
2017-11-14T00:55:40.203Z,6.10
2017-11-14T00:58:07.675Z,6.20
2017-11-14T01:00:35.919Z,6.30
2017-11-14T01:03:03.399Z,6.20
2017-11-14T01:05:30.881Z,6.30
2017-11-14T01:07:59.122Z,6.10
2017-11-14T01:10:26.604Z,6.00
2017-11-14T01:12:54.846Z,6.10
2017-11-14T01:15:22.319Z,6.10
2017-11-14T01:17:51.307Z,6.10
2017-11-14T01:20:19.545Z,6.20
2017-11-14T01:22:47.030Z,6.10
2017-11-14T01:25:14.506Z,6.00
2017-11-14T01:27:41.982Z,6.10
2017-11-14T01:30:10.231Z,6.10
2017-11-14T01:32:37.704Z,6.00
2017-11-14T01:35:05.179Z,6.00
2017-11-14T01:37:33.429Z,6.00
2017-11-14T01:40:00.908Z,5.90
2017-11-14T01:42:29.997Z,6.00
2017-11-14T01:44:57.472Z,6.00
2017-11-14T01:47:25.713Z,6.10
2017-11-14T01:49:53.186Z,6.00
2017-11-14T01:52:20.658Z,6.00
2017-11-14T01:54:48.127Z,6.00
2017-11-14T01:57:16.370Z,5.80
2017-11-14T01:59:43.842Z,5.70
2017-11-14T02:02:11.318Z,5.90
2017-11-14T02:04:39.566Z,6.00
2017-11-14T02:07:07.069Z,5.90
2017-11-14T02:09:35.298Z,6.00
2017-11-14T02:12:02.773Z,5.90
2017-11-14T02:14:31.758Z,5.90
2017-11-14T02:16:59.226Z,5.90
2017-11-14T02:19:28.206Z,5.70
2017-11-14T02:21:55.677Z,5.70
2017-11-14T02:24:23.916Z,5.90
2017-11-14T02:26:57.114Z,5.90
2017-11-14T02:29:24.585Z,5.90
2017-11-14T02:31:52.059Z,5.90
2017-11-14T02:34:21.037Z,5.90
2017-11-14T02:36:48.508Z,5.90
2017-11-14T02:39:15.992Z,6.00
2017-11-14T02:41:44.234Z,6.00
2017-11-14T02:44:11.724Z,6.00
2017-11-14T02:46:39.993Z,6.20
2017-11-14T02:49:07.471Z,6.10
2017-11-14T02:51:35.719Z,6.00
2017-11-14T02:54:03.969Z,6.00
2017-11-14T02:56:31.445Z,6.00
2017-11-14T02:58:58.941Z,5.90
2017-11-14T03:01:27.182Z,6.00
2017-11-14T03:03:54.653Z,5.90
2017-11-14T03:06:22.133Z,5.80
2017-11-14T03:08:50.379Z,5.90
2017-11-14T03:11:17.860Z,5.80
2017-11-14T03:13:46.102Z,5.80
2017-11-14T03:16:13.572Z,5.70
2017-11-14T03:18:41.046Z,5.80
2017-11-14T03:21:09.329Z,5.70
2017-11-14T03:23:36.798Z,5.70
2017-11-14T03:26:05.034Z,5.60
2017-11-14T03:28:32.522Z,5.50
2017-11-14T03:31:00.013Z,5.60
2017-11-14T03:33:27.485Z,5.60
2017-11-14T03:35:54.958Z,5.50
2017-11-14T03:38:22.430Z,5.50
2017-11-14T03:40:49.902Z,5.40
2017-11-14T03:43:17.387Z,5.40
2017-11-14T03:45:45.655Z,5.50
2017-11-14T03:48:13.876Z,5.60
2017-11-14T03:50:41.346Z,5.60
2017-11-14T03:53:08.825Z,5.60
2017-11-14T03:55:36.305Z,5.60
2017-11-14T03:58:04.551Z,5.60
2017-11-14T04:00:32.032Z,5.50
2017-11-14T04:02:59.574Z,5.50
2017-11-14T04:05:27.072Z,5.50
2017-11-14T04:07:55.615Z,5.60
2017-11-14T04:10:23.091Z,5.60
2017-11-14T04:12:50.561Z,5.40
2017-11-14T04:15:18.039Z,5.50
2017-11-14T04:17:46.281Z,5.60
2017-11-14T04:20:15.262Z,5.60
2017-11-14T04:22:42.735Z,5.60
2017-11-14T04:25:10.214Z,5.70
2017-11-14T04:27:38.451Z,5.70
2017-11-14T04:30:05.918Z,5.60
2017-11-14T04:32:33.392Z,5.50
2017-11-14T04:35:01.646Z,5.60
2017-11-14T04:37:29.114Z,5.60
2017-11-14T04:39:56.589Z,5.60
2017-11-14T04:42:24.057Z,5.60
2017-11-14T04:44:52.298Z,5.60
2017-11-14T04:47:19.762Z,5.50
2017-11-14T04:49:47.238Z,5.60
2017-11-14T04:52:14.710Z,5.60
2017-11-14T04:54:42.950Z,5.80
2017-11-14T04:57:10.422Z,5.70
2017-11-14T04:59:37.999Z,5.80
2017-11-14T05:02:05.479Z,5.90
2017-11-14T05:04:33.718Z,5.90
2017-11-14T05:07:02.711Z,5.90
2017-11-14T05:09:30.183Z,5.80
2017-11-14T05:11:57.659Z,5.90
2017-11-14T05:14:25.903Z,5.80
2017-11-14T05:16:53.379Z,5.80
2017-11-14T05:19:20.863Z,5.80
2017-11-14T05:21:49.102Z,5.80
2017-11-14T05:24:16.578Z,5.80
2017-11-14T05:26:44.057Z,5.80
2017-11-14T05:29:12.306Z,5.80
2017-11-14T05:31:39.782Z,5.70
2017-11-14T05:34:08.022Z,5.80
2017-11-14T05:36:35.503Z,5.70
2017-11-14T05:39:02.979Z,5.70
2017-11-14T05:41:31.223Z,5.70
2017-11-14T05:43:58.703Z,5.70
2017-11-14T05:46:26.175Z,5.70
2017-11-14T05:48:54.422Z,5.80
2017-11-14T05:51:21.909Z,5.70
2017-11-14T05:53:50.159Z,5.80
2017-11-14T05:56:18.406Z,5.80
2017-11-14T05:58:45.877Z,5.80
2017-11-14T06:01:13.361Z,5.70
2017-11-14T06:03:41.617Z,5.80
2017-11-14T06:06:09.100Z,5.80
2017-11-14T06:08:36.579Z,5.80
2017-11-14T06:11:04.822Z,5.80
2017-11-14T06:13:32.306Z,5.70
2017-11-14T06:16:00.549Z,5.80
2017-11-14T06:18:28.023Z,5.80
2017-11-14T06:20:55.501Z,5.90
2017-11-14T06:23:23.738Z,5.80
2017-11-14T06:25:51.215Z,5.80
2017-11-14T06:28:18.693Z,5.90
2017-11-14T06:30:46.931Z,5.90
2017-11-14T06:33:14.424Z,5.90
2017-11-14T06:35:42.665Z,6.00
2017-11-14T06:38:10.147Z,5.90
2017-11-14T06:40:37.638Z,5.90
2017-11-14T06:43:05.890Z,5.90
2017-11-14T06:45:33.362Z,5.90
2017-11-14T06:48:01.607Z,6.10
2017-11-14T06:50:29.083Z,6.10
2017-11-14T06:52:56.558Z,6.20
2017-11-14T06:55:24.798Z,6.10
2017-11-14T06:57:52.278Z,6.10
2017-11-14T07:00:19.751Z,6.20
2017-11-14T07:02:47.986Z,6.10
2017-11-14T07:05:15.462Z,6.00
2017-11-14T07:07:44.450Z,6.20
2017-11-14T07:10:11.926Z,6.20
2017-11-14T07:12:39.405Z,6.10
2017-11-14T07:15:07.646Z,6.20
2017-11-14T07:17:35.124Z,6.20
2017-11-14T07:20:03.363Z,6.20
2017-11-14T07:22:30.841Z,6.20
2017-11-14T07:24:58.327Z,6.20
2017-11-14T07:27:26.576Z,6.20
2017-11-14T07:29:54.818Z,6.20
2017-11-14T07:32:22.289Z,6.20
2017-11-14T07:34:49.762Z,6.30
2017-11-14T07:37:17.242Z,6.40
2017-11-14T07:39:44.717Z,6.40
2017-11-14T07:42:12.960Z,6.50
2017-11-14T07:44:40.434Z,6.50
2017-11-14T07:47:07.939Z,6.50
2017-11-14T07:49:35.422Z,6.50
2017-11-14T07:52:02.894Z,6.50
2017-11-14T07:54:30.369Z,6.50
2017-11-14T07:56:57.845Z,6.50
2017-11-14T07:59:26.081Z,6.50
2017-11-14T08:01:53.550Z,6.50
2017-11-14T08:04:22.550Z,6.50
2017-11-14T08:06:50.023Z,6.50
2017-11-14T08:09:18.277Z,6.50
2017-11-14T08:11:45.755Z,6.50
2017-11-14T08:14:14.006Z,6.70
2017-11-14T08:16:41.497Z,6.60
2017-11-14T08:19:09.734Z,6.70
2017-11-14T08:21:37.210Z,6.70
2017-11-14T08:24:04.687Z,6.80
2017-11-14T08:26:32.965Z,6.80
2017-11-14T08:29:00.430Z,6.70
2017-11-14T08:31:28.715Z,7.00
2017-11-14T08:33:57.122Z,7.00
2017-11-14T08:36:25.073Z,7.00
2017-11-14T08:38:52.758Z,7.00
2017-11-14T08:41:20.234Z,7.10
2017-11-14T08:43:47.708Z,7.00
2017-11-14T08:46:15.178Z,7.20
2017-11-14T08:48:44.161Z,7.10
2017-11-14T08:51:11.639Z,7.10
2017-11-14T08:53:39.886Z,8.40
2017-11-14T08:56:07.362Z,8.40
2017-11-14T08:58:35.289Z,8.80
2017-11-14T09:01:04.663Z,7.80
2017-11-14T09:03:33.322Z,7.80
2017-11-14T09:06:01.661Z,7.80
2017-11-14T09:08:30.500Z,8.30
2017-11-14T09:10:58.910Z,8.10
2017-11-14T09:13:27.319Z,7.90
2017-11-14T09:15:55.462Z,7.80
2017-11-14T09:18:24.099Z,8.00
2017-11-14T09:20:51.574Z,7.90
2017-11-14T09:23:19.250Z,10.20
2017-11-14T09:25:47.811Z,12.30
2017-11-14T09:28:15.812Z,12.20
2017-11-14T09:30:44.794Z,12.70
2017-11-14T09:33:12.573Z,12.60
2017-11-14T09:35:41.219Z,15.20
2017-11-14T09:38:09.602Z,15.10
2017-11-14T09:40:38.144Z,16.70
2017-11-14T09:43:06.021Z,13.90
2017-11-14T09:45:34.910Z,11.60
2017-11-14T09:48:02.103Z,11.90
2017-11-14T09:50:29.985Z,11.40
2017-11-14T09:52:57.060Z,10.30
2017-11-14T09:55:25.053Z,9.90
2017-11-14T09:57:52.077Z,9.80
2017-11-14T10:00:19.949Z,9.20
2017-11-14T10:02:47.744Z,10.50
2017-11-14T10:05:14.784Z,10.50
2017-11-14T10:07:41.806Z,9.80
2017-11-14T10:10:09.600Z,9.10
2017-11-14T10:12:36.623Z,9.10
2017-11-14T10:15:04.407Z,9.00
2017-11-14T10:17:31.433Z,9.00
2017-11-14T10:19:59.225Z,9.00
2017-11-14T10:22:27.097Z,9.00
2017-11-14T10:24:54.116Z,9.10
2017-11-14T10:27:21.911Z,9.20
2017-11-14T10:29:48.933Z,9.10
2017-11-14T10:32:16.723Z,9.30
2017-11-14T10:34:43.758Z,9.30
2017-11-14T10:37:10.781Z,9.40
2017-11-14T10:39:38.573Z,9.40
2017-11-14T10:42:05.605Z,9.40
2017-11-14T10:44:33.401Z,9.50
2017-11-14T10:47:00.430Z,9.50
2017-11-14T10:49:27.453Z,9.70
2017-11-14T10:51:54.485Z,9.80
2017-11-14T10:54:21.516Z,9.70
2017-11-14T10:56:48.537Z,9.60
2017-11-14T10:59:15.567Z,9.80
2017-11-14T11:01:42.617Z,10.10
2017-11-14T11:04:10.420Z,9.80
2017-11-14T11:06:37.448Z,9.70
2017-11-14T11:09:04.489Z,10.80
2017-11-14T11:11:31.520Z,10.50
2017-11-14T11:13:59.313Z,10.40
2017-11-14T11:16:32.277Z,10.40
2017-11-14T11:19:00.077Z,10.40
2017-11-14T11:21:27.114Z,10.40
2017-11-14T11:23:54.149Z,11.10
2017-11-14T11:26:21.185Z,11.20
2017-11-14T11:28:49.008Z,10.40
2017-11-14T11:31:16.033Z,10.40
2017-11-14T11:33:43.060Z,10.70
2017-11-14T11:36:10.100Z,10.30
2017-11-14T11:38:37.892Z,11.50
2017-11-14T11:41:04.924Z,11.50
2017-11-14T11:43:31.961Z,11.50
2017-11-14T11:45:59.757Z,11.50
2017-11-14T11:48:26.805Z,11.40
2017-11-14T11:50:53.942Z,11.30
2017-11-14T11:53:20.968Z,11.10
2017-11-14T11:55:48.765Z,11.40
2017-11-14T11:58:15.804Z,11.30
2017-11-14T12:00:42.833Z,12.90
2017-11-14T12:03:10.626Z,11.80
2017-11-14T12:05:37.660Z,11.80
2017-11-14T12:08:04.706Z,11.60
2017-11-14T12:10:32.500Z,12.00
2017-11-14T12:12:59.544Z,12.00
2017-11-14T12:15:26.583Z,12.00
2017-11-14T12:17:53.617Z,12.00
2017-11-14T12:20:20.657Z,11.70
2017-11-14T12:22:48.458Z,12.50
2017-11-14T12:25:15.494Z,12.50
2017-11-14T12:27:42.542Z,11.60
2017-11-14T12:30:09.575Z,11.10
2017-11-14T12:32:37.368Z,11.40
2017-11-14T12:35:04.397Z,11.40
2017-11-14T12:37:31.429Z,11.50
2017-11-14T12:39:59.218Z,11.00
2017-11-14T12:42:26.249Z,11.00
2017-11-14T12:44:54.046Z,11.10
2017-11-14T12:47:21.068Z,11.00
2017-11-14T12:49:48.105Z,11.30
2017-11-14T12:52:15.910Z,11.20
2017-11-14T12:54:42.950Z,11.20
2017-11-14T12:57:09.985Z,11.40
2017-11-14T12:59:37.013Z,11.70
2017-11-14T13:02:04.811Z,13.10
2017-11-14T13:04:31.839Z,13.00
2017-11-14T13:06:59.630Z,12.80
2017-11-14T13:09:26.657Z,12.80
2017-11-14T13:11:53.685Z,13.10
2017-11-14T13:14:21.482Z,12.60
2017-11-14T13:16:48.509Z,12.60
2017-11-14T13:19:16.329Z,12.50
2017-11-14T13:21:43.354Z,12.50
2017-11-14T13:24:10.386Z,12.20
2017-11-14T13:26:37.415Z,12.80
2017-11-14T13:29:05.249Z,13.20
2017-11-14T13:31:32.281Z,13.10
2017-11-14T13:33:59.311Z,13.20
2017-11-14T13:36:26.337Z,13.60
2017-11-14T13:38:54.137Z,12.40
2017-11-14T13:41:21.182Z,12.30
2017-11-14T13:43:48.214Z,13.10
2017-11-14T13:46:15.245Z,13.50
2017-11-14T13:48:43.040Z,13.10
2017-11-14T13:51:10.096Z,13.10
2017-11-14T13:53:37.125Z,12.90
2017-11-14T13:56:04.162Z,12.30
2017-11-14T13:58:31.972Z,12.20
2017-11-14T14:00:59.004Z,12.10
2017-11-14T14:03:26.134Z,12.30
2017-11-14T14:05:53.177Z,12.90
2017-11-14T14:08:20.982Z,12.70
2017-11-14T14:10:48.013Z,12.70
2017-11-14T14:13:15.042Z,13.00
2017-11-14T14:15:42.069Z,13.20
2017-11-14T14:18:09.905Z,12.70
2017-11-14T14:20:36.945Z,12.60
2017-11-14T14:23:03.973Z,12.30
2017-11-14T14:25:31.008Z,12.70
2017-11-14T14:27:58.035Z,12.90
2017-11-14T14:30:25.830Z,12.90
2017-11-14T14:32:52.857Z,12.90
2017-11-14T14:35:20.652Z,12.20
2017-11-14T14:37:47.688Z,12.20
2017-11-14T14:40:14.720Z,12.40
2017-11-14T14:42:42.525Z,11.70
2017-11-14T14:45:09.600Z,11.60
2017-11-14T14:47:36.625Z,12.30
2017-11-14T14:50:03.661Z,12.40
2017-11-14T14:52:30.699Z,12.30
2017-11-14T14:54:57.736Z,12.80
2017-11-14T14:57:24.777Z,12.30
2017-11-14T14:59:52.571Z,12.40
2017-11-14T15:02:19.597Z,12.40
2017-11-14T15:04:47.483Z,12.40
2017-11-14T15:07:14.509Z,12.30
2017-11-14T15:09:42.313Z,11.90
2017-11-14T15:12:09.342Z,11.90
2017-11-14T15:14:36.369Z,12.10
2017-11-14T15:17:04.177Z,12.00
2017-11-14T15:19:31.208Z,11.90
2017-11-14T15:21:58.236Z,11.60
2017-11-14T15:24:26.025Z,11.50
2017-11-14T15:26:53.063Z,11.40
2017-11-14T15:29:20.099Z,11.40
2017-11-14T15:31:47.895Z,11.40
2017-11-14T15:34:14.937Z,11.30
2017-11-14T15:36:41.977Z,11.20
2017-11-14T15:39:09.022Z,11.00
2017-11-14T15:41:36.053Z,10.80
2017-11-14T15:44:03.846Z,10.90
2017-11-14T15:46:30.874Z,10.80
2017-11-14T15:48:58.662Z,10.90
2017-11-14T15:51:25.693Z,10.80
2017-11-14T15:53:52.724Z,10.90
2017-11-14T15:56:20.521Z,10.70
2017-11-14T15:58:47.552Z,10.60
2017-11-14T16:01:15.349Z,10.60
2017-11-14T16:03:42.378Z,10.50
2017-11-14T16:06:09.415Z,10.60
2017-11-14T16:08:37.208Z,10.30
2017-11-14T16:11:04.248Z,10.30
2017-11-14T16:13:31.396Z,10.50
2017-11-14T16:15:58.420Z,10.40
2017-11-14T16:18:26.212Z,10.30
2017-11-14T16:20:53.232Z,10.30
2017-11-14T16:23:21.026Z,10.00
2017-11-14T16:25:48.076Z,10.00
2017-11-14T16:28:15.118Z,10.10
2017-11-14T16:30:42.144Z,10.00
2017-11-14T16:33:09.937Z,10.10
2017-11-14T16:35:36.961Z,10.00
2017-11-14T16:38:04.756Z,9.80
2017-11-14T16:40:31.777Z,9.80
2017-11-14T16:42:59.566Z,9.90
2017-11-14T16:45:26.608Z,9.90
2017-11-14T16:47:53.621Z,9.80
2017-11-14T16:50:22.145Z,9.80
2017-11-14T16:52:49.184Z,9.80
2017-11-14T16:55:16.200Z,9.90
2017-11-14T16:57:43.238Z,9.90
2017-11-14T17:00:10.265Z,9.90
2017-11-14T17:02:37.291Z,9.90
2017-11-14T17:05:04.343Z,9.90
2017-11-14T17:07:31.364Z,9.90
2017-11-14T17:09:58.401Z,9.90
2017-11-14T17:12:26.197Z,10.00
2017-11-14T17:14:53.216Z,9.90
2017-11-14T17:17:21.022Z,9.80
2017-11-14T17:19:48.075Z,9.80
2017-11-14T17:22:15.113Z,9.60
2017-11-14T17:24:42.185Z,9.40
2017-11-14T17:27:09.977Z,9.30
2017-11-14T17:29:37.006Z,9.20
2017-11-14T17:32:04.030Z,9.20
2017-11-14T17:34:31.057Z,9.10
2017-11-14T17:36:58.085Z,8.90
2017-11-14T17:39:25.884Z,8.70
2017-11-14T17:41:52.910Z,8.70
2017-11-14T17:44:20.702Z,8.70
2017-11-14T17:46:47.724Z,8.60
2017-11-14T17:49:15.530Z,8.90
2017-11-14T17:51:42.576Z,8.80
2017-11-14T17:54:09.618Z,8.80
2017-11-14T17:56:36.659Z,8.90
2017-11-14T17:59:03.686Z,8.80
2017-11-14T18:01:31.482Z,8.70
2017-11-14T18:03:58.518Z,8.70
2017-11-14T18:06:25.550Z,8.80
2017-11-14T18:08:53.342Z,8.70
2017-11-14T18:11:20.364Z,8.60
2017-11-14T18:13:47.410Z,8.70
2017-11-14T18:16:15.202Z,8.60
2017-11-14T18:18:42.239Z,8.60
2017-11-14T18:21:09.257Z,8.60
2017-11-14T18:23:37.070Z,8.60
2017-11-14T18:26:04.097Z,8.60
2017-11-14T18:28:31.125Z,8.60
2017-11-14T18:30:58.927Z,8.50
2017-11-14T18:33:25.954Z,8.50
2017-11-14T18:35:52.980Z,8.60
2017-11-14T18:38:20.768Z,8.50
2017-11-14T18:40:47.793Z,8.50
2017-11-14T18:43:15.603Z,8.60
2017-11-14T18:45:42.639Z,8.60
2017-11-14T18:48:09.661Z,8.70
2017-11-14T18:50:37.458Z,8.80
2017-11-14T18:53:04.501Z,8.70
2017-11-14T18:55:31.533Z,8.90
2017-11-14T18:57:59.331Z,8.80
2017-11-14T19:00:26.376Z,8.70
2017-11-14T19:02:53.404Z,8.70
2017-11-14T19:05:21.189Z,8.80
2017-11-14T19:07:48.223Z,8.70
2017-11-14T19:10:15.243Z,8.70
2017-11-14T19:12:42.293Z,8.70
2017-11-14T19:15:10.101Z,8.60
2017-11-14T19:17:37.149Z,8.50
2017-11-14T19:20:04.177Z,8.50
2017-11-14T19:22:31.966Z,8.30
2017-11-14T19:24:59.022Z,8.20
2017-11-14T19:27:26.047Z,8.20
2017-11-14T19:29:53.089Z,8.20
2017-11-14T19:32:20.126Z,8.10
2017-11-14T19:34:47.945Z,8.10
2017-11-14T19:37:14.965Z,8.00
2017-11-14T19:39:41.989Z,8.10
2017-11-14T19:42:09.780Z,8.00
2017-11-14T19:44:36.815Z,7.90
2017-11-14T19:47:03.846Z,8.00
2017-11-14T19:49:30.889Z,8.00
2017-11-14T19:51:58.696Z,8.00
2017-11-14T19:54:25.725Z,8.00
2017-11-14T19:56:52.777Z,8.10
2017-11-14T19:59:19.817Z,8.00
2017-11-14T20:01:46.847Z,7.90
2017-11-14T20:04:14.642Z,7.80
2017-11-14T20:06:41.661Z,7.70
2017-11-14T20:09:08.698Z,8.00
2017-11-14T20:11:35.715Z,7.90
2017-11-14T20:14:02.792Z,7.80
2017-11-14T20:16:30.602Z,7.80
2017-11-14T20:18:57.629Z,7.80
2017-11-14T20:21:25.431Z,7.90
2017-11-14T20:23:52.465Z,7.80
2017-11-14T20:26:19.834Z,8.00
2017-11-14T20:28:46.889Z,8.10
2017-11-14T20:31:13.924Z,8.10
2017-11-14T20:33:40.967Z,8.30
2017-11-14T20:36:08.001Z,8.20
2017-11-14T20:38:35.792Z,8.10
2017-11-14T20:41:02.829Z,8.00
2017-11-14T20:43:30.472Z,8.10
2017-11-14T20:45:58.294Z,8.10
2017-11-14T20:48:26.088Z,8.00
2017-11-14T20:50:53.144Z,7.90
2017-11-14T20:53:20.161Z,7.90
2017-11-14T20:55:47.185Z,7.80
2017-11-14T20:58:14.226Z,7.90
2017-11-14T21:00:41.267Z,7.80
2017-11-14T21:03:08.322Z,7.80
2017-11-14T21:05:35.353Z,7.90
2017-11-14T21:08:03.151Z,7.80
2017-11-14T21:10:30.190Z,7.70
2017-11-14T21:12:58.576Z,7.60
2017-11-14T21:15:26.538Z,7.80
2017-11-14T21:17:53.569Z,7.70
2017-11-14T21:20:21.365Z,7.80
2017-11-14T21:22:48.517Z,7.70
2017-11-14T21:25:15.574Z,7.80
2017-11-14T21:27:42.597Z,7.70
2017-11-14T21:30:09.631Z,7.70
2017-11-14T21:32:37.423Z,7.70
2017-11-14T21:35:04.455Z,7.60
2017-11-14T21:37:31.489Z,7.60
2017-11-14T21:39:59.293Z,7.60
2017-11-14T21:42:26.332Z,7.60
2017-11-14T21:44:53.356Z,7.70
2017-11-14T21:47:21.146Z,7.70
2017-11-14T21:49:48.172Z,7.60
2017-11-14T21:52:16.026Z,7.70
2017-11-14T21:54:43.814Z,7.70
2017-11-14T21:57:10.836Z,7.70
2017-11-14T21:59:38.732Z,7.70
2017-11-14T22:02:05.769Z,7.60
2017-11-14T22:04:33.556Z,7.60
2017-11-14T22:07:00.709Z,7.60
2017-11-14T22:09:27.734Z,7.50
2017-11-14T22:11:55.524Z,7.40
2017-11-14T22:14:22.544Z,7.30
2017-11-14T22:16:50.329Z,7.40
2017-11-14T22:19:17.351Z,7.40
2017-11-14T22:21:45.145Z,7.40
2017-11-14T22:24:12.176Z,7.40
2017-11-14T22:26:39.216Z,7.30
2017-11-14T22:29:07.014Z,7.60
2017-11-14T22:31:34.053Z,7.50
2017-11-14T22:34:01.082Z,7.80
2017-11-14T22:36:28.871Z,7.90
2017-11-14T22:38:55.896Z,7.80
2017-11-14T22:41:23.685Z,7.90
2017-11-14T22:43:50.716Z,7.80
2017-11-14T22:46:18.502Z,7.90
2017-11-14T22:48:45.536Z,7.80
2017-11-14T22:51:12.557Z,7.90
2017-11-14T22:53:40.364Z,7.90
2017-11-14T22:56:07.399Z,7.80
2017-11-14T22:58:34.421Z,7.80
2017-11-14T23:01:02.215Z,7.90
2017-11-14T23:03:29.237Z,7.90
2017-11-14T23:05:57.035Z,7.80
2017-11-14T23:08:24.060Z,7.80
2017-11-14T23:10:51.846Z,8.10
2017-11-14T23:13:18.872Z,8.00
2017-11-14T23:15:46.663Z,7.90
2017-11-14T23:18:13.688Z,7.80
2017-11-14T23:20:41.478Z,7.70
2017-11-14T23:23:08.538Z,7.70
2017-11-14T23:25:35.562Z,7.70
2017-11-14T23:28:03.348Z,7.60
2017-11-14T23:30:30.369Z,7.50
2017-11-14T23:32:58.157Z,7.60
2017-11-14T23:35:25.178Z,7.50
2017-11-14T23:37:52.961Z,7.50
2017-11-14T23:40:19.993Z,7.50
2017-11-14T23:42:47.781Z,7.90
2017-11-14T23:45:14.804Z,7.90
2017-11-14T23:47:42.589Z,7.90
2017-11-14T23:50:09.616Z,7.80
2017-11-14T23:52:37.420Z,7.80
2017-11-14T23:55:04.465Z,7.80
2017-11-14T23:57:31.498Z,7.80
2017-11-14T23:59:58.525Z,7.70
